Latest Weather Observations for Burketown Airport

IDQ60801

Issued at 2:02 pm EST Thursday 2 April 2015 (issued every 30 minutes, with the page automatically refreshed every 10 minutes)

About weather observations | Map of weather stations | Latest weather observations for QLD | Other Formats
Station Details ID: 029077 Name: BURKETOWN AIRPORT Lat: -17.75 Lon: 139.54 Height: 5.7 m
Data from the previous 72 hours. | See also: Recent months at Burketown Airport
Date/Time
EST
Temp
°C
App
Temp
°C
Dew
Point
Rel
Hum
%
Delta-T
°C
Wind Press
QNH
hPa
Press
MSL
hPa
Rain
since 9 am
mm
Dir
 
Spd
km/h
Gust
km/h
Spd
kts
Gust
kts
02/02:00pm 33.2 33.4 22.0 51 7.6 N 24 35 13 19 1008.5 - 11.6
02/01:30pm 33.2 33.8 23.5 56 6.7 N 26 35 14 19 1009.0 - 11.6
02/01:00pm 31.3 32.7 24.2 66 5.0 N 24 35 13 19 1009.5 - 11.6
02/12:30pm 30.1 32.4 24.5 72 3.9 NNE 20 28 11 15 1009.8 - 11.4
02/12:00pm 28.0 31.3 26.0 89 1.4 NNE 20 26 11 14 1010.4 1010.3 11.4
02/11:30am 28.1 32.1 25.1 84 2.1 N 13 43 7 23 1011.2 - 9.6
02/11:21am 28.4 29.5 25.0 82 2.4 ESE 28 41 15 22 1011.3 - 6.2
02/11:00am 30.0 33.1 24.2 71 4.0 N 15 20 8 11 1011.0 - 1.6
02/10:30am 32.8 36.5 22.6 55 7.0 NE 7 11 4 6 1010.8 - 0.0
02/10:00am 34.8 39.0 23.5 52 7.9 SW 7 15 4 8 1011.0 - 0.0
02/09:30am 32.6 36.1 23.5 58 6.3 SW 11 17 6 9 1011.1 - 0.0
02/09:00am 32.0 36.3 24.3 63 5.4 SW 9 15 5 8 1010.9 1010.8 0.0
02/08:30am 31.0 35.0 24.4 68 4.6 SSW 11 13 6 7 1010.7 - 0.0
02/08:00am 30.3 35.6 24.4 70 4.1 SSW 4 7 2 4 1010.5 - 0.0
02/07:30am 29.4 35.2 25.2 78 3.0 NNE 4 6 2 3 1010.3 - 0.0
02/07:00am 28.1 33.2 24.7 82 2.4 NNE 6 6 3 3 1010.1 - 0.0
02/06:30am 27.8 33.3 24.6 83 2.2 NNE 4 6 2 3 1009.8 - 0.0
02/06:00am 27.3 32.1 24.4 84 2.0 N 7 7 4 4 1009.4 1009.3 0.0
02/05:30am 27.6 33.7 24.4 83 2.2 CALM 0 0 0 0 1009.0 - 0.0
02/05:00am 27.7 32.4 24.3 82 2.4 WNW 7 7 4 4 1008.5 - 0.0
02/04:30am 28.0 32.8 24.4 81 2.5 W 7 9 4 5 1008.3 - 0.0
02/04:00am 28.4 32.9 24.6 80 2.6 W 9 13 5 7 1008.0 - 0.0
02/03:30am 28.6 33.0 24.4 78 2.9 WNW 9 11 5 6 1007.9 - 0.0
02/03:00am 28.7 33.0 24.3 77 3.1 W 9 11 5 6 1008.0 1007.9 0.0
02/02:30am 28.8 32.8 24.4 77 3.1 WNW 11 15 6 8 1008.2 - 0.0
02/02:00am 29.1 32.2 24.2 75 3.4 WNW 15 20 8 11 1008.4 - 0.0
02/01:30am 29.2 32.0 24.3 75 3.4 WNW 17 24 9 13 1008.5 - 0.0
02/01:00am 29.2 31.9 24.1 74 3.5 NW 17 20 9 11 1009.1 - 0.0
02/12:30am 29.4 32.4 24.0 72 3.7 NW 15 20 8 11 1009.6 - 0.0
02/12:00am 29.5 32.6 24.1 72 3.8 W 15 19 8 10 1010.2 1010.1 0.0
 
Date/Time
EST
Temp
°C
App
Temp
°C
Dew
Point
Rel
Hum
%
Delta-T
°C
Wind Press
QNH
hPa
Press
MSL
hPa
Rain
since 9 am
mm
Dir
 
Spd
km/h
Gust
km/h
Spd
kts
Gust
kts
01/11:30pm 29.5 32.2 24.1 72 3.7 WNW 17 22 9 12 1010.1 - 0.0
01/11:00pm 29.6 32.1 24.5 74 3.6 WNW 19 26 10 14 1010.0 - 0.0
01/10:30pm 30.0 33.4 25.3 76 3.3 NW 17 22 9 12 1010.2 - 0.0
01/10:00pm 30.1 34.6 25.2 75 3.5 NNW 11 13 6 7 1010.4 - 0.0
01/09:30pm 30.1 34.0 24.9 73 3.6 N 13 17 7 9 1010.2 - 0.0
01/09:00pm 30.3 33.3 24.7 72 3.9 N 17 20 9 11 1010.0 1009.9 0.0
01/08:30pm 30.4 32.5 23.8 68 4.6 N 19 24 10 13 1009.5 - 0.0
01/08:00pm 30.5 32.8 23.4 66 4.9 NNE 17 24 9 13 1009.3 - 0.0
01/07:30pm 30.5 32.6 23.7 67 4.7 NNE 19 22 10 12 1009.2 - 0.0
01/07:00pm 30.7 32.5 23.6 66 4.9 NNE 20 28 11 15 1008.9 - 0.0
01/06:30pm 31.2 32.2 22.8 61 5.8 NNE 22 30 12 16 1008.4 - 0.0
01/06:00pm 32.5 33.2 22.9 57 6.6 N 24 32 13 17 1008.1 1008.0 0.0
01/05:30pm 33.2 33.3 22.6 53 7.3 N 26 35 14 19 1008.0 - 0.0
01/05:00pm 33.8 33.9 22.6 52 7.7 NNE 26 32 14 17 1008.1 - 0.0
01/04:30pm 34.2 34.9 22.3 50 8.2 NNE 22 32 12 17 1007.8 - 0.0
01/04:00pm 36.3 37.5 22.1 43 9.8 NNE 19 28 10 15 1007.8 - 0.0
01/03:30pm 36.6 37.7 22.0 43 10.0 NNE 19 24 10 13 1007.8 - 0.0
01/03:00pm 35.7 36.8 21.2 43 9.9 NNE 17 24 9 13 1008.3 1008.2 0.0
01/02:30pm 35.6 35.9 21.5 44 9.6 NE 22 30 12 16 1008.6 - 0.0
01/02:00pm 36.0 36.1 21.8 43 9.7 NNE 24 32 13 17 1009.1 - 0.0
01/01:30pm 36.4 36.5 21.8 42 10.0 NNE 24 33 13 18 1009.7 - 0.0
01/01:00pm 35.2 35.9 22.2 47 8.9 NNE 22 35 12 19 1010.2 - 0.0
01/12:30pm 36.4 36.8 22.5 44 9.6 NNE 24 35 13 19 1010.6 - 0.0
01/12:00pm 36.4 37.6 22.5 44 9.6 NNE 20 32 11 17 1011.0 1010.9 0.0
01/11:30am 35.9 35.9 19.8 39 10.7 NE 19 32 10 17 1011.6 - 0.0
01/11:00am 35.3 35.6 19.6 39 10.4 ENE 17 24 9 13 1012.0 - 0.0
01/10:30am 34.2 34.4 19.4 41 9.8 E 17 24 9 13 1012.3 - 0.0
01/10:00am 33.5 33.9 19.9 44 9.0 E 17 24 9 13 1012.4 - 0.0
01/09:30am 32.2 31.6 19.8 48 8.2 E 22 28 12 15 1012.5 - 0.0
01/09:00am 31.7 31.3 19.3 47 8.1 E 20 26 11 14 1012.4 1012.3 0.0
01/08:30am 30.5 32.6 21.0 57 6.3 SE 11 17 6 9 1012.3 - 0.0
01/08:00am 26.7 31.8 23.4 82 2.3 W 2 6 1 3 1012.0 - 0.0
01/07:30am 25.4 29.5 22.9 86 1.7 NNW 6 7 3 4 1011.5 - 0.0
01/07:00am 24.7 29.4 22.0 85 1.8 CALM 0 0 0 0 1011.3 - 0.0
01/06:30am 24.9 28.4 22.2 85 1.8 N 7 9 4 5 1011.0 - 0.0
01/06:00am 25.0 28.5 22.1 84 1.9 N 7 11 4 6 1010.8 1010.7 0.0
01/05:30am 25.4 29.1 22.3 83 2.1 ENE 6 11 3 6 1010.5 - 0.0
01/05:00am 25.3 30.1 22.2 83 2.1 CALM 0 0 0 0 1010.1 - 0.0
01/04:30am 25.5 28.7 22.4 83 2.1 WSW 9 13 5 7 1009.8 - 0.0
01/04:00am 25.8 28.8 22.7 83 2.1 SW 11 17 6 9 1009.9 - 0.0
01/03:30am 25.6 29.2 22.3 82 2.2 SW 7 11 4 6 1009.8 - 0.0
01/03:00am 25.5 28.6 22.2 82 2.2 WSW 9 11 5 6 1009.8 1009.7 0.0
01/02:30am 25.6 28.4 22.3 82 2.2 W 11 13 6 7 1009.9 - 0.0
01/02:00am 25.4 28.2 21.5 79 2.6 W 9 11 5 6 1010.2 - 0.0
01/01:30am 25.7 28.5 21.6 78 2.7 NW 9 11 5 6 1010.5 - 0.0
01/01:00am 26.0 28.5 21.7 77 2.9 W 11 11 6 6 1010.8 - 0.0
01/12:30am 26.3 28.8 21.7 76 3.1 WNW 11 11 6 6 1011.2 - 0.0
01/12:00am 26.8 29.6 21.5 72 3.5 NW 9 11 5 6 1011.5 1011.4 0.0
 
Date/Time
EST
Temp
°C
App
Temp
°C
Dew
Point
Rel
Hum
%
Delta-T
°C
Wind Press
QNH
hPa
Press
MSL
hPa
Rain
since 9 am
mm
Dir
 
Spd
km/h
Gust
km/h
Spd
kts
Gust
kts
31/11:30pm 27.2 29.7 21.7 72 3.7 WNW 11 13 6 7 1011.5 - 0.0
31/11:00pm 27.8 30.1 22.1 71 3.8 WNW 13 15 7 8 1011.7 - 0.0
31/10:30pm 27.6 30.2 21.9 71 3.8 NW 11 13 6 7 1011.8 - 0.0
31/10:00pm 28.4 31.1 22.2 69 4.2 NNW 11 13 6 7 1011.8 - 0.0
31/09:30pm 28.6 31.0 21.6 66 4.7 NNW 11 11 6 6 1011.6 - 0.0
31/09:00pm 29.2 31.1 21.4 63 5.2 N 13 15 7 8 1011.3 1011.2 0.0
31/08:30pm 29.5 31.4 21.4 61 5.4 N 13 15 7 8 1011.0 - 0.0
31/08:00pm 30.2 31.9 21.6 60 5.8 N 15 19 8 10 1010.8 - 0.0
31/07:30pm 30.9 32.2 20.8 55 6.7 N 15 19 8 10 1010.6 - 0.0
31/07:00pm 31.7 32.9 20.0 50 7.7 N 13 17 7 9 1010.3 - 0.0
31/06:30pm 32.5 33.4 20.1 48 8.2 N 15 19 8 10 1010.1 - 0.0
31/06:00pm 33.1 34.1 20.3 47 8.5 N 15 20 8 11 1009.8 1009.7 0.0
31/05:30pm 34.2 35.4 20.6 45 9.1 N 15 20 8 11 1010.0 - 0.0
31/05:00pm 34.6 35.6 20.2 43 9.6 NNE 15 20 8 11 1009.9 - 0.0
31/04:30pm 34.9 36.4 21.2 45 9.3 NNE 15 24 8 13 1009.8 - 0.0
31/04:00pm 34.7 35.3 21.0 44 9.2 NNE 19 26 10 14 1010.1 - 0.0
31/03:30pm 35.7 35.8 21.2 43 9.8 NE 22 28 12 15 1010.3 - 0.0
31/03:00pm 34.8 35.4 21.1 44 9.3 N 19 28 10 15 1010.6 1010.5 0.0
31/02:30pm 35.3 36.2 21.6 45 9.3 N 19 22 10 12 1011.0 - 0.0
31/02:00pm 35.2 36.0 21.8 45 9.1 NNE 20 32 11 17 1011.5 - 0.0
31/01:30pm 35.0 35.9 21.6 45 9.1 NNE 19 30 10 16 1012.0 - 0.0
31/01:00pm 35.3 36.4 22.3 47 8.9 NNE 20 32 11 17 1012.4 - 0.0
31/12:30pm 34.1 35.0 21.9 49 8.3 NNE 20 33 11 18 1013.0 - 0.0
31/12:00pm 35.1 36.6 23.1 49 8.3 NE 20 32 11 17 1013.4 1013.3 0.0
31/11:30am 34.4 35.8 22.5 50 8.2 NNE 19 30 10 16 1014.0 - 0.0
31/11:00am 34.2 35.9 22.3 50 8.2 ENE 17 24 9 13 1014.4 - 0.0
31/10:30am 33.4 35.4 22.2 52 7.7 NNE 15 20 8 11 1014.6 - 0.0
31/10:00am 32.7 35.2 22.5 55 7.0 NE 13 19 7 10 1014.7 - 0.0
31/09:30am 32.3 34.1 21.2 52 7.5 NE 13 19 7 10 1014.7 - 0.0
31/09:00am 31.8 34.7 19.8 49 7.9 NNE 4 13 2 7 1014.7 1014.6 0.0
31/08:30am 30.1 31.9 18.8 50 7.3 N 7 11 4 6 1014.6 - 0.0
31/08:00am 28.4 30.6 19.1 57 6.0 ENE 6 9 3 5 1014.4 - 0.0
31/07:30am 26.4 28.1 19.3 65 4.6 ENE 9 13 5 7 1013.9 - 0.0
31/07:00am 24.0 25.9 18.9 73 3.2 NE 7 9 4 5 1013.2 - 0.0
31/06:30am 24.0 25.4 18.6 72 3.4 W 9 11 5 6 1012.5 - 0.0
31/06:00am 23.7 24.9 19.0 75 3.0 W 11 13 6 7 1012.1 1012.0 0.0
31/05:30am 24.1 25.6 19.0 73 3.2 W 9 11 5 6 1011.8 - 0.0
31/05:00am 24.0 25.3 19.3 75 3.0 W 11 13 6 7 1011.6 - 0.0
31/04:30am 23.9 25.2 19.4 76 2.9 W 11 13 6 7 1011.4 - 0.0
31/04:00am 24.2 26.3 19.3 74 3.1 W 7 11 4 6 1011.3 - 0.0
31/03:30am 24.3 26.0 19.4 74 3.1 WNW 9 11 5 6 1011.3 - 0.0
31/03:00am 24.5 26.7 19.6 74 3.2 W 7 9 4 5 1011.5 1011.4 0.0
31/02:30am 24.7 26.4 19.3 72 3.5 WNW 9 11 5 6 1011.7 - 0.0
31/02:00am 24.7 26.4 19.3 72 3.5 WNW 9 9 5 5 1011.8 - 0.0
31/01:30am 24.8 26.3 19.0 70 3.7 NW 9 11 5 6 1011.9 - 0.0
31/01:00am 25.1 26.6 19.0 69 3.9 NW 9 9 5 5 1012.2 - 0.0
31/12:30am 25.5 27.0 18.9 67 4.2 NW 9 11 5 6 1012.6 - 0.0
31/12:00am 25.8 27.3 19.0 66 4.4 NW 9 11 5 6 1012.9 1012.8 0.0
 
Date/Time
EST
Temp
°C
App
Temp
°C
Dew
Point
Rel
Hum
%
Delta-T
°C
Wind Press
QNH
hPa
Press
MSL
hPa
Rain
since 9 am
mm
Dir
 
Spd
km/h
Gust
km/h
Spd
kts
Gust
kts
30/11:30pm 26.0 28.0 19.2 66 4.4 WNW 7 9 4 5 1013.0 - 0.0
30/11:00pm 25.9 27.6 19.3 67 4.2 WNW 9 11 5 6 1013.2 - 0.0
30/10:30pm 26.5 28.0 18.9 63 4.9 NW 9 11 5 6 1013.2 - 0.0
30/10:00pm 27.2 28.4 19.0 61 5.3 NNW 11 11 6 6 1013.3 - 0.0
30/09:30pm 27.4 28.8 18.7 59 5.6 NNW 9 11 5 6 1013.3 - 0.0
30/09:00pm 27.9 28.9 18.6 57 6.0 NNW 11 13 6 7 1013.3 1013.2 0.0
30/08:30pm 28.6 29.6 18.7 55 6.4 NNW 11 11 6 6 1013.0 - 0.0
30/08:00pm 29.3 30.2 18.4 51 7.0 NNW 11 11 6 6 1012.8 - 0.0
30/07:30pm 30.3 30.8 18.4 49 7.7 N 13 15 7 8 1012.4 - 0.0
30/07:00pm 31.2 31.6 18.2 46 8.4 NNW 13 19 7 10 1012.3 - 0.0
30/06:30pm 32.7 32.3 18.1 42 9.4 N 17 20 9 11 1012.1 - 0.0
30/06:00pm 33.9 34.1 17.6 38 10.5 N 13 20 7 11 1011.9 1011.8 0.0
30/05:30pm 34.6 34.3 17.3 35 11.1 N 15 20 8 11 1011.8 - 0.0
30/05:00pm 35.1 35.4 16.9 34 11.6 NE 11 17 6 9 1011.8 - 0.0
30/04:30pm 35.2 34.4 17.0 34 11.7 N 17 28 9 15 1011.8 - 0.0
30/04:00pm 35.3 34.5 17.0 33 11.7 NE 17 24 9 13 1011.9 - 0.0
30/03:30pm 35.5 34.7 17.2 33 11.8 NNE 17 30 9 16 1012.0 - 0.0
30/03:00pm 35.2 33.8 16.5 33 11.9 NNE 19 28 10 15 1012.4 1012.3 0.0
30/02:30pm 35.3 33.4 16.6 33 11.9 NNE 22 30 12 16 1012.7 - 0.0

Other Formats:

Comma delimited format used in spreadsheet applications
http://www.bom.gov.au/fwo/IDQ60801/IDQ60801.94260.axf

JavaScript Object Notation format (JSON) in row-major order
http://www.bom.gov.au/fwo/IDQ60801/IDQ60801.94260.json